createdAt,value
2022-11-01T00:02:08.888Z,101492.56
2022-11-01T00:04:36.805Z,101481.84
2022-11-01T00:07:05.496Z,101489.59
2022-11-01T00:09:33.263Z,101487.00
2022-11-01T00:12:01.003Z,101490.25
2022-11-01T00:14:28.582Z,101489.38
2022-11-01T00:16:56.241Z,101485.00
2022-11-01T00:19:28.644Z,101490.84
2022-11-01T00:21:56.994Z,101489.31
2022-11-01T00:24:25.397Z,101478.41
2022-11-01T00:26:54.749Z,101474.78
2022-11-01T00:29:22.582Z,101473.34
2022-11-01T00:31:50.428Z,101481.56
2022-11-01T00:34:18.311Z,101477.38
2022-11-01T00:36:46.935Z,101477.06
2022-11-01T00:39:14.980Z,101476.59
2022-11-01T00:41:42.805Z,101474.84
2022-11-01T00:44:10.600Z,101477.53
2022-11-01T00:46:38.584Z,101474.47
2022-11-01T00:49:06.273Z,101483.25
2022-11-01T00:51:34.159Z,101485.31
2022-11-01T00:54:01.978Z,101485.38
2022-11-01T00:56:29.912Z,101491.72
2022-11-01T00:58:58.104Z,101494.91
2022-11-01T01:01:26.167Z,101494.09
2022-11-01T01:03:54.324Z,101494.53
2022-11-01T01:06:22.093Z,101502.00
2022-11-01T01:08:50.523Z,101494.13
2022-11-01T01:11:18.332Z,101494.50
2022-11-01T01:13:46.888Z,101500.34
2022-11-01T01:16:14.809Z,101503.50
2022-11-01T01:18:43.311Z,101495.19
2022-11-01T01:21:11.430Z,101490.78
2022-11-01T01:23:39.680Z,101493.69
2022-11-01T01:26:08.619Z,101488.41
2022-11-01T01:28:41.693Z,101492.31
2022-11-01T01:31:13.109Z,101497.19
2022-11-01T01:33:42.243Z,101498.53
2022-11-01T01:36:10.074Z,101497.28
2022-11-01T01:38:38.082Z,101495.25
2022-11-01T01:41:24.757Z,101492.25
2022-11-01T01:43:52.608Z,101496.53
2022-11-01T01:46:20.494Z,101493.69
2022-11-01T01:48:52.050Z,101492.72
2022-11-01T01:51:21.846Z,101484.63
2022-11-01T01:53:51.884Z,101479.94
2022-11-01T01:56:35.701Z,101478.81
2022-11-01T01:59:08.292Z,101477.06
2022-11-01T02:01:38.162Z,101474.56
2022-11-01T02:04:09.360Z,101475.91
2022-11-01T02:06:37.415Z,101473.56
2022-11-01T02:09:05.587Z,101470.13
2022-11-01T02:11:34.533Z,101476.53
2022-11-01T02:14:03.335Z,101473.50
2022-11-01T02:16:55.602Z,101473.09
2022-11-01T02:20:07.707Z,101475.00
2022-11-01T02:23:03.859Z,101482.56
2022-11-01T02:25:34.965Z,101474.91
2022-11-01T02:28:22.407Z,101484.38
2022-11-01T02:31:28.121Z,101480.66
2022-11-01T02:34:01.679Z,101485.25
2022-11-01T02:36:40.748Z,101478.34
2022-11-01T02:39:30.919Z,101472.03
2022-11-01T02:42:12.021Z,101479.72
2022-11-01T02:44:43.265Z,101478.75
2022-11-01T02:47:12.344Z,101478.84
2022-11-01T02:49:47.464Z,101488.50
2022-11-01T02:52:24.970Z,101489.44
2022-11-01T02:54:54.019Z,101482.84
2022-11-01T02:57:34.645Z,101492.50
2022-11-01T03:00:19.903Z,101486.41
2022-11-01T03:02:48.780Z,101484.47
2022-11-01T03:05:55.872Z,101486.28
2022-11-01T03:08:32.561Z,101492.22
2022-11-01T03:11:04.575Z,101486.66
2022-11-01T03:13:44.884Z,101487.34
2022-11-01T03:16:28.102Z,101481.13
2022-11-01T03:19:23.714Z,101494.59
2022-11-01T03:21:53.200Z,101482.19
2022-11-01T03:24:43.910Z,101481.19
2022-11-01T03:27:32.811Z,101484.56
2022-11-01T03:30:05.936Z,101483.38
2022-11-01T03:32:46.076Z,101487.34
2022-11-01T03:35:17.098Z,101486.94
2022-11-01T03:37:44.883Z,101493.28
2022-11-01T03:40:13.564Z,101489.31
2022-11-01T03:42:44.871Z,101486.94
2022-11-01T03:45:12.716Z,101486.75
2022-11-01T03:47:42.009Z,101479.06
2022-11-01T03:50:23.160Z,101488.66
2022-11-01T03:52:51.046Z,101485.22
2022-11-01T03:55:19.368Z,101489.22
2022-11-01T03:57:54.804Z,101496.44
2022-11-01T04:00:23.394Z,101490.28
2022-11-01T04:02:53.314Z,101493.28
2022-11-01T04:05:22.056Z,101491.00
2022-11-01T04:07:51.605Z,101498.06
2022-11-01T04:10:19.770Z,101496.94
2022-11-01T04:12:49.158Z,101494.81
2022-11-01T04:15:36.327Z,101503.81
2022-11-01T04:18:53.260Z,101503.34
2022-11-01T04:21:23.477Z,101495.88
2022-11-01T04:23:51.315Z,101501.59
2022-11-01T04:26:22.585Z,101508.41
2022-11-01T04:28:57.794Z,101506.66
2022-11-01T04:31:37.127Z,101502.47
2022-11-01T04:34:05.479Z,101503.41
2022-11-01T04:36:33.845Z,101506.66
2022-11-01T04:39:02.173Z,101500.25
2022-11-01T04:41:30.553Z,101502.28
2022-11-01T04:44:00.191Z,101509.16
2022-11-01T04:46:31.955Z,101493.94
2022-11-01T04:48:59.371Z,101503.63
2022-11-01T04:51:27.250Z,101503.63
2022-11-01T04:53:55.179Z,101499.88
2022-11-01T04:56:22.883Z,101509.13
2022-11-01T04:58:50.982Z,101508.75
2022-11-01T05:01:18.801Z,101514.28
2022-11-01T05:03:48.480Z,101509.56
2022-11-01T05:06:16.596Z,101522.97
2022-11-01T05:08:44.377Z,101526.16
2022-11-01T05:11:14.453Z,101517.88
2022-11-01T05:13:44.627Z,101526.09
2022-11-01T05:16:20.661Z,101525.16
2022-11-01T05:18:49.001Z,101529.91
2022-11-01T05:21:18.284Z,101527.59
2022-11-01T05:23:49.919Z,101536.00
2022-11-01T05:26:17.758Z,101533.88
2022-11-01T05:28:48.212Z,101535.25
2022-11-01T05:31:16.120Z,101544.41
2022-11-01T05:33:43.792Z,101535.00
2022-11-01T05:36:11.751Z,101545.13
2022-11-01T05:38:40.593Z,101546.31
2022-11-01T05:41:09.185Z,101541.50
2022-11-01T05:43:36.904Z,101550.66
2022-11-01T05:46:05.901Z,101553.69
2022-11-01T05:48:34.025Z,101553.25
2022-11-01T05:51:01.828Z,101561.50
2022-11-01T05:53:29.710Z,101560.25
2022-11-01T05:55:57.698Z,101558.00
2022-11-01T05:58:29.572Z,101560.16
2022-11-01T06:00:59.561Z,101560.56
2022-11-01T06:03:27.852Z,101554.84
2022-11-01T06:05:55.938Z,101560.69
2022-11-01T06:08:23.861Z,101562.84
2022-11-01T06:10:51.866Z,101559.47
2022-11-01T06:13:19.658Z,101560.69
2022-11-01T06:15:48.097Z,101569.28
2022-11-01T06:18:15.964Z,101557.84
2022-11-01T06:20:44.316Z,101581.09
2022-11-01T06:23:13.403Z,101580.63
2022-11-01T06:25:42.628Z,101568.56
2022-11-01T06:28:10.873Z,101578.25
2022-11-01T06:30:41.810Z,101572.97
2022-11-01T06:33:10.265Z,101567.81
2022-11-01T06:35:38.944Z,101571.75
2022-11-01T06:38:07.168Z,101573.69
2022-11-01T06:40:37.928Z,101570.63
2022-11-01T06:43:06.652Z,101577.41
2022-11-01T06:45:34.855Z,101567.81
2022-11-01T06:48:03.175Z,101575.03
2022-11-01T06:50:31.710Z,101576.78
2022-11-01T06:53:00.246Z,101571.56
2022-11-01T06:55:28.986Z,101580.06
2022-11-01T06:57:58.025Z,101577.25
2022-11-01T07:00:26.477Z,101579.22
2022-11-01T07:03:15.072Z,101573.53
2022-11-01T07:05:43.904Z,101572.28
2022-11-01T07:08:13.198Z,101574.53
2022-11-01T07:10:43.229Z,101576.88
2022-11-01T07:13:12.273Z,101570.66
2022-11-01T07:15:40.594Z,101566.06
2022-11-01T07:18:09.601Z,101573.03
2022-11-01T07:20:43.257Z,101573.03
2022-11-01T07:23:14.754Z,101574.28
2022-11-01T07:25:44.032Z,101570.13
2022-11-01T07:28:12.965Z,101570.88
2022-11-01T07:30:43.909Z,101562.56
2022-11-01T07:33:12.028Z,101577.63
2022-11-01T07:35:39.932Z,101565.84
2022-11-01T07:38:12.457Z,101566.94
2022-11-01T07:40:41.511Z,101574.06
2022-11-01T07:43:19.541Z,101566.22
2022-11-01T07:45:47.935Z,101556.16
2022-11-01T07:48:17.499Z,101554.94
2022-11-01T07:50:46.038Z,101558.38
2022-11-01T07:53:18.536Z,101559.59
2022-11-01T07:55:48.325Z,101557.47
2022-11-01T07:58:16.482Z,101575.13
2022-11-01T08:00:49.866Z,101567.41
2022-11-01T08:03:19.451Z,101568.38
2022-11-01T08:05:48.702Z,101566.16
2022-11-01T08:08:16.808Z,101576.47
2022-11-01T08:10:50.757Z,101570.94
2022-11-01T08:13:23.460Z,101569.34
2022-11-01T08:15:53.136Z,101571.00
2022-11-01T08:18:22.889Z,101577.66
2022-11-01T08:20:51.021Z,101574.06
2022-11-01T08:23:18.949Z,101565.75
2022-11-01T08:25:46.733Z,101591.69
2022-11-01T08:28:17.048Z,101584.84
2022-11-01T08:30:46.003Z,101589.44
2022-11-01T08:33:36.251Z,101603.53
2022-11-01T08:36:02.291Z,101606.66
2022-11-01T08:38:31.123Z,101622.59
2022-11-01T08:40:59.476Z,101602.44
2022-11-01T08:43:31.854Z,101602.03
2022-11-01T08:46:00.832Z,101601.31
2022-11-01T08:48:28.770Z,101592.88
2022-11-01T08:50:56.480Z,101597.81
2022-11-01T08:53:27.146Z,101608.91
2022-11-01T08:55:56.330Z,101605.16
2022-11-01T08:58:25.243Z,101595.63
2022-11-01T09:00:53.784Z,101589.34
2022-11-01T09:03:21.825Z,101590.25
2022-11-01T09:05:50.010Z,101588.13
2022-11-01T09:08:18.336Z,101594.69
2022-11-01T09:10:48.676Z,101585.44
2022-11-01T09:13:17.016Z,101588.47
2022-11-01T09:15:48.401Z,101575.91
2022-11-01T09:18:16.624Z,101589.16
2022-11-01T09:20:45.959Z,101583.78
2022-11-01T09:23:16.568Z,101600.88
2022-11-01T09:25:48.646Z,101590.63
2022-11-01T09:28:17.093Z,101572.78
2022-11-01T09:30:50.173Z,101577.06
2022-11-01T09:33:30.041Z,101577.34
2022-11-01T09:35:59.760Z,101576.06
2022-11-01T09:38:27.729Z,101559.50
2022-11-01T09:40:59.545Z,101552.75
2022-11-01T09:43:28.771Z,101559.75
2022-11-01T09:45:59.327Z,101558.59
2022-11-01T09:48:30.946Z,101564.84
2022-11-01T09:51:07.936Z,101546.41
2022-11-01T09:53:36.195Z,101575.19
2022-11-01T09:56:13.222Z,101560.41
2022-11-01T09:58:51.329Z,101570.75
2022-11-01T10:01:47.759Z,101569.44
2022-11-01T10:04:23.210Z,101574.94
2022-11-01T10:06:56.657Z,101568.84
2022-11-01T10:10:15.875Z,101570.22
2022-11-01T10:13:11.524Z,101572.81
2022-11-01T10:16:04.256Z,101576.97
2022-11-01T10:18:33.482Z,101565.63
2022-11-01T10:21:04.872Z,101579.34
2022-11-01T10:23:49.540Z,101570.03
2022-11-01T10:26:28.820Z,101561.84
2022-11-01T10:28:59.520Z,101541.81
2022-11-01T10:31:27.787Z,101551.22
2022-11-01T10:33:57.342Z,101545.88
2022-11-01T10:39:54.745Z,101538.59
2022-11-01T10:42:21.920Z,101551.25
2022-11-01T10:45:09.023Z,101552.38
2022-11-01T10:47:38.761Z,101540.59
2022-11-01T10:50:12.516Z,101548.28
2022-11-01T10:52:52.331Z,101551.75
2022-11-01T10:55:22.186Z,101549.81
2022-11-01T10:57:53.473Z,101550.47
2022-11-01T11:00:24.039Z,101560.88
2022-11-01T11:02:54.895Z,101559.00
2022-11-01T11:05:26.548Z,101552.63
2022-11-01T11:07:57.933Z,101565.75
2022-11-01T11:10:27.309Z,101551.47
2022-11-01T11:13:01.740Z,101557.00
2022-11-01T11:15:51.319Z,101555.16
2022-11-01T11:18:21.937Z,101570.16
2022-11-01T11:21:02.643Z,101563.16
2022-11-01T11:23:34.156Z,101558.97
2022-11-01T11:26:10.717Z,101549.03
2022-11-01T11:28:44.472Z,101541.75
2022-11-01T11:31:21.640Z,101539.72
2022-11-01T11:33:51.807Z,101546.03
2022-11-01T11:36:28.377Z,101548.13
2022-11-01T11:38:56.362Z,101553.16
2022-11-01T11:41:36.752Z,101544.00
2022-11-01T11:44:04.538Z,101553.59
2022-11-01T11:46:32.430Z,101548.06
2022-11-01T11:49:04.613Z,101544.44
2022-11-01T11:51:35.838Z,101543.47
2022-11-01T11:54:06.564Z,101533.94
2022-11-01T11:56:34.188Z,101544.47
2022-11-01T11:59:08.495Z,101545.41
2022-11-01T12:01:36.822Z,101542.06
2022-11-01T12:04:16.223Z,101536.78
2022-11-01T12:06:45.680Z,101533.72
2022-11-01T12:09:37.878Z,101554.59
2022-11-01T12:12:29.660Z,101554.84
2022-11-01T12:14:57.800Z,101551.53
2022-11-01T12:17:29.309Z,101542.16
2022-11-01T12:20:10.014Z,101549.16
2022-11-01T12:22:39.647Z,101545.28
2022-11-01T12:25:23.664Z,101554.72
2022-11-01T12:28:06.266Z,101559.53
2022-11-01T12:30:36.567Z,101550.84
2022-11-01T12:33:21.794Z,101563.59
2022-11-01T12:35:49.940Z,101561.75
2022-11-01T12:38:41.026Z,101574.69
2022-11-01T12:41:46.552Z,101583.41
2022-11-01T12:44:34.303Z,101577.34
2022-11-01T12:47:27.655Z,101574.63
2022-11-01T12:50:03.993Z,101570.38
2022-11-01T12:52:38.758Z,101571.91
2022-11-01T12:55:15.302Z,101576.06
2022-11-01T12:57:46.190Z,101572.63
2022-11-01T13:00:18.639Z,101569.47
2022-11-01T13:02:59.622Z,101579.59
2022-11-01T13:06:05.566Z,101556.03
2022-11-01T13:08:44.324Z,101573.06
2022-11-01T13:11:50.739Z,101579.84
2022-11-01T13:14:25.428Z,101578.16
2022-11-01T13:16:59.713Z,101571.19
2022-11-01T13:19:43.733Z,101579.84
2022-11-01T13:22:22.514Z,101569.91
2022-11-01T13:25:01.706Z,101572.28
2022-11-01T13:27:41.642Z,101569.91
2022-11-01T13:30:13.286Z,101570.94
2022-11-01T13:33:11.787Z,101574.91
2022-11-01T13:35:55.092Z,101573.13
2022-11-01T13:38:32.668Z,101571.47
2022-11-01T13:41:22.551Z,101578.00
2022-11-01T13:43:53.693Z,101577.59
2022-11-01T13:46:30.689Z,101569.13
2022-11-01T13:49:33.416Z,101570.50
2022-11-01T13:52:08.531Z,101564.16
2022-11-01T13:54:53.661Z,101556.44
2022-11-01T13:57:25.096Z,101566.28
2022-11-01T14:00:07.182Z,101566.63
2022-11-01T14:02:54.334Z,101559.50
2022-11-01T14:05:22.628Z,101565.81
2022-11-01T14:07:53.538Z,101562.59
2022-11-01T14:10:28.435Z,101555.56
2022-11-01T14:13:08.663Z,101556.59
2022-11-01T14:15:54.997Z,101557.44
2022-11-01T14:18:23.089Z,101550.03
2022-11-01T14:20:52.115Z,101555.75
2022-11-01T14:23:30.024Z,101551.78
2022-11-01T14:26:20.342Z,101555.06
2022-11-01T14:28:54.526Z,101561.66
2022-11-01T14:31:24.757Z,101553.47
2022-11-01T14:33:56.102Z,101547.94
2022-11-01T14:36:29.915Z,101551.91
2022-11-01T14:39:09.355Z,101554.91
2022-11-01T14:41:39.431Z,101557.06
2022-11-01T14:44:15.349Z,101556.47
2022-11-01T14:46:46.688Z,101550.72
2022-11-01T14:49:23.810Z,101557.41
2022-11-01T14:52:14.135Z,101554.81
2022-11-01T14:54:45.210Z,101554.09
2022-11-01T14:57:26.044Z,101554.63
2022-11-01T14:59:54.324Z,101552.75
2022-11-01T15:02:22.952Z,101550.44
2022-11-01T15:04:52.740Z,101558.06
2022-11-01T15:07:29.536Z,101559.94
2022-11-01T15:10:00.312Z,101563.44
2022-11-01T15:12:30.289Z,101558.91
2022-11-01T15:15:01.748Z,101561.41
2022-11-01T15:17:31.663Z,101560.94
2022-11-01T15:19:59.816Z,101559.25
2022-11-01T15:22:28.596Z,101562.47
2022-11-01T15:25:04.964Z,101566.31
2022-11-01T15:27:40.050Z,101570.66
2022-11-01T15:30:08.288Z,101565.53
2022-11-01T15:32:36.264Z,101565.81
2022-11-01T15:35:16.529Z,101567.91
2022-11-01T15:37:49.266Z,101575.56
2022-11-01T15:40:27.883Z,101568.66
2022-11-01T15:43:00.018Z,101578.16
2022-11-01T15:45:33.176Z,101578.31
2022-11-01T15:48:09.001Z,101566.41
2022-11-01T15:50:38.655Z,101571.09
2022-11-01T15:53:11.299Z,101579.00
2022-11-01T15:55:44.437Z,101576.16
2022-11-01T15:58:18.507Z,101579.41
2022-11-01T16:00:52.629Z,101581.22
2022-11-01T16:03:52.895Z,101579.78
2022-11-01T16:06:26.988Z,101579.03
2022-11-01T16:08:59.875Z,101587.78
2022-11-01T16:11:29.483Z,101587.69
2022-11-01T16:14:03.530Z,101581.66
2022-11-01T16:16:55.127Z,101583.16
2022-11-01T16:19:51.681Z,101583.19
2022-11-01T16:22:44.704Z,101585.78
2022-11-01T16:25:16.500Z,101580.38
2022-11-01T16:27:52.251Z,101584.06
2022-11-01T16:30:39.191Z,101579.03
2022-11-01T16:33:19.402Z,101575.22
2022-11-01T16:35:49.721Z,101575.94
2022-11-01T16:38:36.113Z,101569.66
2022-11-01T16:41:19.131Z,101573.38
2022-11-01T16:44:13.844Z,101571.31
2022-11-01T16:46:43.020Z,101569.56
2022-11-01T16:49:24.525Z,101560.75
2022-11-01T16:51:52.624Z,101558.53
2022-11-01T16:54:20.403Z,101553.13
2022-11-01T16:56:55.899Z,101557.63
2022-11-01T16:59:39.299Z,101560.09
2022-11-01T17:02:28.167Z,101568.19
2022-11-01T17:05:06.636Z,101567.09
2022-11-01T17:07:37.040Z,101566.63
2022-11-01T17:10:21.296Z,101564.25
2022-11-01T17:12:50.384Z,101552.25
2022-11-01T17:15:19.707Z,101561.56
2022-11-01T17:17:49.895Z,101558.03
2022-11-01T17:20:23.922Z,101559.63
2022-11-01T17:22:53.623Z,101546.00
2022-11-01T17:25:25.135Z,101554.00
2022-11-01T17:27:52.942Z,101555.81
2022-11-01T17:30:21.215Z,101554.34
2022-11-01T17:32:49.098Z,101556.47
2022-11-01T17:35:20.349Z,101555.84
2022-11-01T17:37:50.722Z,101558.53
2022-11-01T17:40:22.988Z,101561.97
2022-11-01T17:42:51.039Z,101570.34
2022-11-01T17:45:19.761Z,101563.84
2022-11-01T17:47:47.727Z,101571.31
2022-11-01T17:50:16.340Z,101570.22
2022-11-01T17:52:44.096Z,101568.03
2022-11-01T17:55:12.369Z,101564.00
2022-11-01T17:57:41.582Z,101561.28
2022-11-01T18:00:11.166Z,101563.75
2022-11-01T18:02:45.195Z,101561.78
2022-11-01T18:05:14.111Z,101560.09
2022-11-01T18:07:43.856Z,101559.97
2022-11-01T18:10:19.044Z,101555.94
2022-11-01T18:13:11.006Z,101559.09
2022-11-01T18:15:43.219Z,101557.63
2022-11-01T18:19:00.754Z,101557.75
2022-11-01T18:21:43.498Z,101552.59
2022-11-01T18:24:19.848Z,101542.91
2022-11-01T18:26:49.988Z,101541.44
2022-11-01T18:29:24.221Z,101553.47
2022-11-01T18:32:05.435Z,101558.47
2022-11-01T18:34:55.627Z,101539.97
2022-11-01T18:37:45.103Z,101551.13
2022-11-01T18:40:14.299Z,101545.38
2022-11-01T18:42:42.875Z,101548.41
2022-11-01T18:45:26.815Z,101552.22
2022-11-01T18:47:59.315Z,101551.69
2022-11-01T18:50:27.133Z,101544.44
2022-11-01T18:53:23.028Z,101539.63
2022-11-01T18:55:52.151Z,101533.47
2022-11-01T18:58:25.676Z,101529.78
2022-11-01T19:01:13.928Z,101531.97
2022-11-01T19:03:42.396Z,101536.25
2022-11-01T19:06:20.802Z,101528.59
2022-11-01T19:08:56.623Z,101522.34
2022-11-01T19:11:28.217Z,101535.06
2022-11-01T19:13:58.764Z,101525.31
2022-11-01T19:16:26.667Z,101517.78
2022-11-01T19:18:54.960Z,101535.13
2022-11-01T19:21:23.793Z,101534.00
2022-11-01T19:23:58.411Z,101526.28
2022-11-01T19:26:33.486Z,101520.56
2022-11-01T19:29:01.454Z,101521.78
2022-11-01T19:31:31.450Z,101535.22
2022-11-01T19:34:02.112Z,101524.56
2022-11-01T19:39:25.310Z,101523.22
2022-11-01T19:41:56.217Z,101516.47
2022-11-01T19:44:24.805Z,101505.66
2022-11-01T19:47:18.061Z,101504.63
2022-11-01T19:49:45.756Z,101515.09
2022-11-01T19:52:25.107Z,101526.41
2022-11-01T19:54:53.745Z,101515.28
2022-11-01T19:57:31.610Z,101511.13
2022-11-01T20:00:15.002Z,101515.38
2022-11-01T20:02:45.502Z,101509.41
2022-11-01T20:05:34.292Z,101519.50
2022-11-01T20:08:14.687Z,101520.69
2022-11-01T20:10:43.411Z,101517.22
2022-11-01T20:13:11.642Z,101503.69
2022-11-01T20:15:40.212Z,101515.94
2022-11-01T20:18:08.297Z,101508.94
2022-11-01T20:20:37.297Z,101504.81
2022-11-01T20:23:25.389Z,101503.31
2022-11-01T20:25:53.612Z,101512.25
2022-11-01T20:28:21.801Z,101500.91
2022-11-01T20:30:49.667Z,101510.63
2022-11-01T20:33:17.851Z,101501.56
2022-11-01T20:35:45.951Z,101508.81
2022-11-01T20:38:13.923Z,101509.13
2022-11-01T20:40:41.818Z,101507.28
2022-11-01T20:43:09.837Z,101495.50
2022-11-01T20:45:37.963Z,101495.94
2022-11-01T20:48:07.616Z,101498.22
2022-11-01T20:50:36.298Z,101494.53
2022-11-01T20:53:05.745Z,101491.28
2022-11-01T20:55:34.158Z,101494.88
2022-11-01T20:58:02.679Z,101495.03
2022-11-01T21:00:32.069Z,101492.31
2022-11-01T21:03:00.240Z,101498.91
2022-11-01T21:05:29.664Z,101487.22
2022-11-01T21:08:00.534Z,101497.22
2022-11-01T21:10:33.815Z,101498.34
2022-11-01T21:13:02.838Z,101496.78
2022-11-01T21:15:38.587Z,101493.94
2022-11-01T21:18:12.504Z,101490.38
2022-11-01T21:20:49.492Z,101486.97
2022-11-01T21:23:32.457Z,101481.53
2022-11-01T21:26:01.436Z,101490.38
2022-11-01T21:28:42.375Z,101481.13
2022-11-01T21:31:10.261Z,101485.81
2022-11-01T21:33:39.642Z,101484.41
2022-11-01T21:36:35.124Z,101482.41
2022-11-01T21:39:10.147Z,101469.88
2022-11-01T21:41:51.989Z,101480.28
2022-11-01T21:44:56.002Z,101468.16
2022-11-01T21:47:25.496Z,101474.00
2022-11-01T21:49:53.462Z,101478.44
2022-11-01T21:52:21.608Z,101480.97
2022-11-01T21:54:49.816Z,101487.00
2022-11-01T21:57:17.990Z,101484.56
2022-11-01T21:59:45.759Z,101481.84
2022-11-01T22:02:14.997Z,101481.84
2022-11-01T22:04:44.177Z,101489.84
2022-11-01T22:07:12.166Z,101474.69
2022-11-01T22:09:40.098Z,101474.44
2022-11-01T22:12:08.170Z,101477.25
2022-11-01T22:14:36.036Z,101471.84
2022-11-01T22:17:05.741Z,101465.88
2022-11-01T22:19:33.647Z,101461.31
2022-11-01T22:22:02.149Z,101459.59
2022-11-01T22:24:30.326Z,101459.16
2022-11-01T22:26:59.192Z,101465.28
2022-11-01T22:29:27.266Z,101463.88
2022-11-01T22:31:55.662Z,101464.00
2022-11-01T22:34:23.839Z,101462.69
2022-11-01T22:36:53.032Z,101457.16
2022-11-01T22:39:21.622Z,101459.97
2022-11-01T22:41:49.718Z,101450.81
2022-11-01T22:44:19.496Z,101457.78
2022-11-01T22:46:53.599Z,101459.78
2022-11-01T22:49:30.979Z,101460.19
2022-11-01T22:52:04.158Z,101453.31
2022-11-01T22:54:41.112Z,101452.88
2022-11-01T22:57:08.848Z,101456.69
2022-11-01T23:00:00.639Z,101455.09
2022-11-01T23:02:33.869Z,101452.66
2022-11-01T23:05:06.295Z,101446.94
2022-11-01T23:07:48.739Z,101442.50
2022-11-01T23:10:31.112Z,101448.19
2022-11-01T23:13:29.862Z,101444.78
2022-11-01T23:16:11.310Z,101444.91
2022-11-01T23:18:40.196Z,101445.75
2022-11-01T23:21:08.110Z,101444.78
2022-11-01T23:23:44.259Z,101437.63
2022-11-01T23:26:12.264Z,101429.66
2022-11-01T23:28:45.686Z,101435.06
2022-11-01T23:31:13.624Z,101430.78
2022-11-01T23:33:43.381Z,101430.94
2022-11-01T23:36:19.676Z,101423.09
2022-11-01T23:38:55.665Z,101424.94
2022-11-01T23:41:42.861Z,101429.63
2022-11-01T23:44:34.729Z,101418.31
2022-11-01T23:47:25.278Z,101429.41
2022-11-01T23:50:22.337Z,101433.09
2022-11-01T23:52:54.743Z,101420.69
2022-11-01T23:55:26.527Z,101408.28
2022-11-01T23:57:55.779Z,101411.84
